createdAt,value
2022-09-16T00:01:46.234Z,99772.66
2022-09-16T00:04:48.099Z,99768.47
2022-09-16T00:07:49.915Z,99771.31
2022-09-16T00:10:52.172Z,99768.56
2022-09-16T00:13:53.934Z,99777.84
2022-09-16T00:16:57.045Z,99778.97
2022-09-16T00:19:58.931Z,99773.34
2022-09-16T00:23:00.594Z,99773.06
2022-09-16T00:26:02.588Z,99778.25
2022-09-16T00:29:04.224Z,99769.69
2022-09-16T00:32:07.511Z,99766.53
2022-09-16T00:35:09.452Z,99769.50
2022-09-16T00:38:11.277Z,99767.75
2022-09-16T00:41:16.777Z,99773.06
2022-09-16T00:44:52.590Z,99768.25
2022-09-16T00:47:59.510Z,99765.72
2022-09-16T00:51:05.466Z,99767.47
2022-09-16T00:54:09.967Z,99772.66
2022-09-16T00:57:15.076Z,99776.41
2022-09-16T01:00:17.648Z,99773.28
2022-09-16T01:03:21.360Z,99769.38
2022-09-16T01:06:26.375Z,99767.88
2022-09-16T01:09:29.594Z,99762.78
2022-09-16T01:12:33.327Z,99765.59
2022-09-16T01:15:56.514Z,99755.13
2022-09-16T01:19:10.311Z,99764.69
2022-09-16T01:22:28.997Z,99759.50
2022-09-16T01:25:43.333Z,99759.09
2022-09-16T01:29:01.594Z,99763.34
2022-09-16T01:32:13.064Z,99763.91
2022-09-16T01:35:27.346Z,99767.03
2022-09-16T01:38:41.805Z,99776.28
2022-09-16T01:41:59.160Z,99777.31
2022-09-16T01:45:06.057Z,99783.28
2022-09-16T01:48:19.493Z,99775.25
2022-09-16T01:51:26.810Z,99774.97
2022-09-16T01:54:36.518Z,99771.38
2022-09-16T01:57:45.100Z,99780.97
2022-09-16T02:00:51.790Z,99780.47
2022-09-16T02:04:00.046Z,99775.38
2022-09-16T02:07:05.225Z,99770.81
2022-09-16T02:10:13.264Z,99767.75
2022-09-16T02:13:22.346Z,99753.66
2022-09-16T02:16:35.089Z,99738.53
2022-09-16T02:19:43.204Z,99720.84
2022-09-16T02:22:48.467Z,99718.41
2022-09-16T02:25:51.975Z,99741.91
2022-09-16T02:28:55.872Z,99756.31
2022-09-16T02:32:01.514Z,99759.28
2022-09-16T02:35:09.087Z,99768.72
2022-09-16T02:38:16.687Z,99770.47
2022-09-16T02:41:18.416Z,99759.91
2022-09-16T02:44:20.087Z,99751.44
2022-09-16T02:47:30.277Z,99755.63
2022-09-16T02:50:40.784Z,99757.28
2022-09-16T02:53:48.599Z,99779.03
2022-09-16T02:56:50.417Z,99791.66
2022-09-16T02:59:52.079Z,99781.38
2022-09-16T03:02:54.565Z,99777.72
2022-09-16T03:06:19.206Z,99778.63
2022-09-16T03:09:24.173Z,99779.16
2022-09-16T03:13:32.610Z,99782.19
2022-09-16T03:16:45.942Z,99769.88
2022-09-16T03:19:59.777Z,99770.66
2022-09-16T03:23:13.777Z,99768.09
2022-09-16T03:26:24.215Z,99758.16
2022-09-16T03:29:32.404Z,99752.66
2022-09-16T03:32:37.771Z,99750.91
2022-09-16T03:35:45.766Z,99745.97
2022-09-16T03:38:49.931Z,99753.19
2022-09-16T03:41:51.922Z,99750.16
2022-09-16T03:44:53.629Z,99754.66
2022-09-16T03:47:55.707Z,99757.50
2022-09-16T03:50:57.299Z,99750.78
2022-09-16T03:54:00.212Z,99745.75
2022-09-16T03:57:02.176Z,99734.13
2022-09-16T04:00:05.072Z,99733.09
2022-09-16T04:03:13.283Z,99736.78
2022-09-16T04:06:15.080Z,99736.44
2022-09-16T04:09:18.260Z,99740.53
2022-09-16T04:12:19.836Z,99734.28
2022-09-16T04:15:21.446Z,99738.97
2022-09-16T04:18:23.682Z,99734.34
2022-09-16T04:21:26.196Z,99733.41
2022-09-16T04:24:29.579Z,99736.19
2022-09-16T04:27:31.229Z,99735.34
2022-09-16T04:30:33.175Z,99734.03
2022-09-16T04:33:35.727Z,99739.44
2022-09-16T04:36:37.600Z,99730.16
2022-09-16T04:39:41.259Z,99713.00
2022-09-16T04:42:51.020Z,99724.81
2022-09-16T04:45:52.746Z,99719.44
2022-09-16T04:48:55.775Z,99723.66
2022-09-16T04:51:57.433Z,99720.78
2022-09-16T04:55:00.423Z,99715.75
2022-09-16T04:58:02.166Z,99725.91
2022-09-16T05:01:05.677Z,99725.16
2022-09-16T05:04:07.901Z,99731.59
2022-09-16T05:07:09.581Z,99728.91
2022-09-16T05:10:12.655Z,99734.22
2022-09-16T05:13:14.246Z,99728.28
2022-09-16T05:16:17.535Z,99743.97
2022-09-16T05:19:19.249Z,99731.94
2022-09-16T05:22:23.281Z,99725.00
2022-09-16T05:25:26.301Z,99738.84
2022-09-16T05:28:28.293Z,99740.56
2022-09-16T05:31:31.909Z,99745.69
2022-09-16T05:34:36.795Z,99739.31
2022-09-16T05:37:38.437Z,99736.06
2022-09-16T05:40:41.454Z,99744.69
2022-09-16T05:43:43.112Z,99740.38
2022-09-16T05:46:44.758Z,99746.75
2022-09-16T05:49:46.466Z,99740.31
2022-09-16T05:52:48.153Z,99738.97
2022-09-16T05:55:58.597Z,99739.69
2022-09-16T05:59:00.848Z,99741.53
2022-09-16T06:02:04.999Z,99740.22
2022-09-16T06:05:07.330Z,99743.50
2022-09-16T06:08:08.989Z,99740.88
2022-09-16T06:11:12.939Z,99756.53
2022-09-16T06:14:16.223Z,99758.72
2022-09-16T06:17:17.834Z,99756.91
2022-09-16T06:20:20.294Z,99769.06
2022-09-16T06:23:22.548Z,99764.34
2022-09-16T06:26:27.157Z,99761.59
2022-09-16T06:29:28.836Z,99756.53
2022-09-16T06:32:31.505Z,99751.66
2022-09-16T06:35:37.661Z,99752.00
2022-09-16T06:38:39.912Z,99747.91
2022-09-16T06:41:43.629Z,99748.94
2022-09-16T06:44:45.348Z,99745.16
2022-09-16T06:47:47.141Z,99744.97
2022-09-16T06:50:48.841Z,99740.06
2022-09-16T06:53:51.726Z,99743.66
2022-09-16T06:56:55.162Z,99737.03
2022-09-16T06:59:56.924Z,99742.44
2022-09-16T07:02:58.651Z,99737.66
2022-09-16T07:06:01.841Z,99738.28
2022-09-16T07:09:04.117Z,99745.28
2022-09-16T07:12:08.154Z,99742.94
2022-09-16T07:15:10.719Z,99747.91
2022-09-16T07:18:12.379Z,99747.09
2022-09-16T07:21:15.985Z,99747.91
2022-09-16T07:24:17.964Z,99750.38
2022-09-16T07:27:20.992Z,99754.16
2022-09-16T07:30:23.246Z,99761.56
2022-09-16T07:33:25.011Z,99757.19
2022-09-16T07:36:28.448Z,99763.78
2022-09-16T07:39:30.126Z,99770.22
2022-09-16T07:42:33.531Z,99763.91
2022-09-16T07:45:35.374Z,99771.13
2022-09-16T07:48:37.621Z,99762.91
2022-09-16T07:51:39.296Z,99770.00
2022-09-16T07:54:40.907Z,99763.28
2022-09-16T07:57:43.875Z,99754.63
2022-09-16T08:00:48.417Z,99758.28
2022-09-16T08:03:49.946Z,99754.13
2022-09-16T08:06:51.529Z,99760.09
2022-09-16T08:09:53.487Z,99754.72
2022-09-16T08:12:57.400Z,99755.53
2022-09-16T08:16:01.597Z,99762.69
2022-09-16T08:19:03.538Z,99772.38
2022-09-16T08:22:05.786Z,99769.28
2022-09-16T08:25:08.032Z,99775.03
2022-09-16T08:28:14.711Z,99766.38
2022-09-16T08:31:17.518Z,99771.88
2022-09-16T08:34:19.648Z,99778.63
2022-09-16T08:37:21.295Z,99788.63
2022-09-16T08:40:25.009Z,99784.56
2022-09-16T08:43:36.657Z,99784.81
2022-09-16T08:46:46.425Z,99786.19
2022-09-16T08:49:51.032Z,99792.50
2022-09-16T08:52:53.361Z,99777.22
2022-09-16T08:55:55.660Z,99777.75
2022-09-16T08:59:01.101Z,99784.66
2022-09-16T09:02:22.767Z,99778.38
2022-09-16T09:05:34.366Z,99771.22
2022-09-16T09:08:45.567Z,99772.66
2022-09-16T09:11:56.444Z,99775.13
2022-09-16T09:15:13.789Z,99782.81
2022-09-16T09:18:24.813Z,99778.13
2022-09-16T09:21:35.370Z,99780.38
2022-09-16T09:24:56.671Z,99784.44
2022-09-16T09:28:12.571Z,99781.78
2022-09-16T09:31:25.749Z,99777.13
2022-09-16T09:34:42.184Z,99789.31
2022-09-16T09:38:07.567Z,99773.59
2022-09-16T09:41:12.879Z,99775.53
2022-09-16T09:44:31.306Z,99766.19
2022-09-16T09:47:42.005Z,99769.25
2022-09-16T09:50:44.598Z,99757.28
2022-09-16T09:53:53.633Z,99765.63
2022-09-16T09:57:02.138Z,99757.63
2022-09-16T10:00:11.981Z,99758.50
2022-09-16T10:03:17.330Z,99760.81
2022-09-16T10:06:26.037Z,99761.09
2022-09-16T10:09:27.859Z,99763.97
2022-09-16T10:12:31.500Z,99756.31
2022-09-16T10:15:34.337Z,99757.50
2022-09-16T10:18:37.839Z,99752.41
2022-09-16T10:21:45.821Z,99764.31
2022-09-16T10:24:54.731Z,99763.38
2022-09-16T10:28:00.011Z,99768.25
2022-09-16T10:31:02.585Z,99763.56
2022-09-16T10:34:16.443Z,99747.25
2022-09-16T10:37:20.024Z,99747.22
2022-09-16T10:40:23.884Z,99745.19
2022-09-16T10:43:28.783Z,99742.63
2022-09-16T10:46:31.170Z,99742.44
2022-09-16T10:49:39.478Z,99741.59
2022-09-16T10:52:42.814Z,99739.06
2022-09-16T10:55:44.463Z,99744.28
2022-09-16T10:58:46.609Z,99744.28
2022-09-16T11:01:56.233Z,99737.38
2022-09-16T11:05:07.069Z,99734.81
2022-09-16T11:08:14.143Z,99742.00
2022-09-16T11:11:24.059Z,99734.72
2022-09-16T11:14:38.730Z,99722.97
2022-09-16T11:17:57.654Z,99726.81
2022-09-16T11:21:15.285Z,99728.13
2022-09-16T11:24:29.956Z,99721.97
2022-09-16T11:27:42.881Z,99727.56
2022-09-16T11:30:53.680Z,99722.03
2022-09-16T11:34:05.738Z,99726.81
2022-09-16T11:37:20.626Z,99721.69
2022-09-16T11:40:33.901Z,99724.31
2022-09-16T11:44:02.837Z,99763.50
2022-09-16T11:47:12.513Z,99758.09
2022-09-16T11:50:36.844Z,99784.16
2022-09-16T11:53:57.307Z,99768.03
2022-09-16T11:57:05.920Z,99766.72
2022-09-16T12:00:13.306Z,99759.06
2022-09-16T12:03:23.857Z,99763.28
2022-09-16T12:06:30.799Z,99751.38
2022-09-16T12:09:39.116Z,99760.16
2022-09-16T12:12:46.051Z,99747.56
2022-09-16T12:15:52.590Z,99742.47
2022-09-16T12:18:59.603Z,99743.38
2022-09-16T12:22:05.755Z,99736.72
2022-09-16T12:25:15.929Z,99732.50
2022-09-16T12:28:24.744Z,99720.81
2022-09-16T12:31:33.514Z,99719.25
2022-09-16T12:34:41.176Z,99729.94
2022-09-16T12:37:48.275Z,99724.94
2022-09-16T12:41:06.901Z,99723.03
2022-09-16T12:44:37.516Z,99730.47
2022-09-16T12:48:12.877Z,99726.50
2022-09-16T12:51:24.706Z,99722.78
2022-09-16T12:55:07.159Z,99718.41
2022-09-16T12:58:28.844Z,99711.69
2022-09-16T13:01:37.313Z,99706.16
2022-09-16T13:04:43.684Z,99711.28
2022-09-16T13:07:50.519Z,99710.69
2022-09-16T13:11:19.995Z,99712.56
2022-09-16T13:14:24.230Z,99713.44
2022-09-16T13:17:31.069Z,99702.47
2022-09-16T13:20:38.210Z,99715.72
2022-09-16T13:23:44.950Z,99699.38
2022-09-16T13:26:46.709Z,99696.44
2022-09-16T13:29:49.882Z,99692.00
2022-09-16T13:32:59.859Z,99697.59
2022-09-16T13:36:30.442Z,99704.31
2022-09-16T13:39:33.597Z,99704.25
2022-09-16T13:42:35.383Z,99713.72
2022-09-16T13:45:40.399Z,99743.34
2022-09-16T13:48:49.234Z,99753.22
2022-09-16T13:51:52.417Z,99761.09
2022-09-16T13:55:12.291Z,99767.06
2022-09-16T13:58:25.176Z,99752.59
2022-09-16T14:01:58.351Z,99759.53
2022-09-16T14:05:15.943Z,99763.28
2022-09-16T14:08:26.754Z,99750.88
2022-09-16T14:11:35.892Z,99754.94
2022-09-16T14:14:53.153Z,99742.63
2022-09-16T14:17:59.526Z,99751.53
2022-09-16T14:21:02.864Z,99749.56
2022-09-16T14:24:15.621Z,99738.97
2022-09-16T14:27:23.553Z,99743.75
2022-09-16T14:30:25.167Z,99748.25
2022-09-16T14:33:34.860Z,99740.06
2022-09-16T14:36:40.315Z,99732.63
2022-09-16T14:39:43.754Z,99728.75
2022-09-16T14:42:49.781Z,99731.31
2022-09-16T14:45:55.080Z,99723.66
2022-09-16T14:48:58.205Z,99729.22
2022-09-16T14:52:04.733Z,99724.41
2022-09-16T14:55:22.512Z,99724.41
2022-09-16T14:58:27.767Z,99720.16
2022-09-16T15:01:29.658Z,99729.81
2022-09-16T15:04:37.186Z,99718.44
2022-09-16T15:07:50.892Z,99719.78
2022-09-16T15:11:19.493Z,99719.06
2022-09-16T15:14:31.910Z,99714.72
2022-09-16T15:17:33.675Z,99723.78
2022-09-16T15:20:39.407Z,99731.16
2022-09-16T15:23:46.347Z,99727.47
2022-09-16T15:26:48.658Z,99725.13
2022-09-16T15:29:56.717Z,99733.22
2022-09-16T15:32:58.388Z,99729.53
2022-09-16T15:36:02.912Z,99732.06
2022-09-16T15:39:05.022Z,99757.56
2022-09-16T15:42:12.061Z,99773.94
2022-09-16T15:45:19.670Z,99779.22
2022-09-16T15:48:21.504Z,99776.91
2022-09-16T15:51:31.501Z,99778.13
2022-09-16T15:54:37.895Z,99773.44
2022-09-16T15:57:44.205Z,99775.69
2022-09-16T16:01:00.302Z,99770.53
2022-09-16T16:04:03.938Z,99775.13
2022-09-16T16:07:07.986Z,99783.50
2022-09-16T16:10:19.519Z,99777.88
2022-09-16T16:13:21.608Z,99785.00
2022-09-16T16:16:23.573Z,99790.59
2022-09-16T16:19:26.142Z,99791.63
2022-09-16T16:22:29.140Z,99805.06
2022-09-16T16:25:30.861Z,99810.69
2022-09-16T16:28:33.443Z,99807.53
2022-09-16T16:31:37.018Z,99812.19
2022-09-16T16:34:40.425Z,99823.16
2022-09-16T16:37:47.662Z,99814.13
2022-09-16T16:40:50.746Z,99817.19
2022-09-16T16:43:52.367Z,99811.13
2022-09-16T16:46:55.498Z,99832.59
2022-09-16T16:49:57.879Z,99825.00
2022-09-16T16:53:04.611Z,99826.78
2022-09-16T16:57:23.797Z,99816.41
2022-09-16T17:00:57.983Z,99800.16
2022-09-16T17:04:11.095Z,99807.56
2022-09-16T17:07:26.592Z,99819.63
2022-09-16T17:10:55.770Z,99825.72
2022-09-16T17:18:45.381Z,99816.25
2022-09-16T17:22:13.428Z,99819.44
2022-09-16T17:25:45.723Z,99823.28
2022-09-16T17:29:15.872Z,99825.34
2022-09-16T17:32:23.589Z,99836.06
2022-09-16T17:35:32.858Z,99842.91
2022-09-16T17:42:39.481Z,99837.59
2022-09-16T17:45:52.450Z,99841.09
2022-09-16T17:52:57.832Z,99844.78
2022-09-16T17:59:58.615Z,99853.91
2022-09-16T18:07:00.871Z,99864.16
2022-09-16T18:10:55.626Z,99863.63
2022-09-16T18:14:07.201Z,99859.97
2022-09-16T18:17:22.228Z,99871.78
2022-09-16T18:20:32.865Z,99863.63
2022-09-16T18:24:33.562Z,99868.78
2022-09-16T18:32:00.468Z,99868.94
2022-09-16T18:39:00.794Z,99869.59
2022-09-16T18:42:29.620Z,99874.97
2022-09-16T18:45:34.545Z,99871.03
2022-09-16T18:52:10.792Z,99878.91
2022-09-16T18:59:20.020Z,99889.84
2022-09-16T19:02:50.444Z,99889.47
2022-09-16T19:06:01.251Z,99883.41
2022-09-16T19:13:03.794Z,99895.25
2022-09-16T19:16:17.911Z,99898.50
2022-09-16T19:20:13.687Z,99892.09
2022-09-16T19:23:20.720Z,99895.22
2022-09-16T19:34:12.351Z,99896.25
2022-09-16T19:37:40.704Z,99902.59
2022-09-16T19:40:50.463Z,99915.75
2022-09-16T19:44:19.819Z,99909.16
2022-09-16T19:47:27.642Z,99908.38
2022-09-16T19:51:22.643Z,99909.03
2022-09-16T19:54:29.053Z,99916.78
2022-09-16T19:57:57.973Z,99920.72
2022-09-16T20:01:41.278Z,99918.78
2022-09-16T20:04:46.695Z,99921.63
2022-09-16T20:08:14.789Z,99918.84
2022-09-16T20:11:22.677Z,99911.13
2022-09-16T20:14:37.407Z,99907.28
2022-09-16T20:17:52.496Z,99915.00
2022-09-16T20:21:21.266Z,99916.63
2022-09-16T20:24:28.448Z,99913.22
2022-09-16T20:28:02.238Z,99905.72
2022-09-16T20:31:34.731Z,99915.16
2022-09-16T20:35:27.646Z,99919.88
2022-09-16T20:38:37.754Z,99927.63
2022-09-16T20:45:39.842Z,99925.69
2022-09-16T20:48:54.536Z,99927.78
2022-09-16T20:52:07.036Z,99925.03
2022-09-16T20:55:14.054Z,99925.41
2022-09-16T20:58:15.747Z,99924.50
2022-09-16T21:01:20.466Z,99922.94
2022-09-16T21:04:22.270Z,99921.47
2022-09-16T21:07:23.920Z,99922.78
2022-09-16T21:10:27.045Z,99930.00
2022-09-16T21:13:28.745Z,99930.13
2022-09-16T21:16:33.854Z,99940.44
2022-09-16T21:19:35.558Z,99953.25
2022-09-16T21:22:40.697Z,99953.47
2022-09-16T21:25:44.198Z,99964.47
2022-09-16T21:28:47.418Z,99969.19
2022-09-16T21:31:49.523Z,99957.41
2022-09-16T21:34:52.894Z,99960.59
2022-09-16T21:37:54.531Z,99951.41
2022-09-16T21:40:59.620Z,99962.13
2022-09-16T21:44:01.796Z,99972.41
2022-09-16T21:47:11.394Z,99967.34
2022-09-16T21:50:13.122Z,99969.09
2022-09-16T21:53:14.995Z,99967.09
2022-09-16T21:56:20.028Z,99967.84
2022-09-16T21:59:24.039Z,99963.59
2022-09-16T22:02:29.000Z,99969.25
2022-09-16T22:05:31.317Z,99981.13
2022-09-16T22:08:33.245Z,99968.75
2022-09-16T22:11:38.089Z,99975.22
2022-09-16T22:14:39.730Z,99987.69
2022-09-16T22:17:41.926Z,99987.63
2022-09-16T22:20:45.970Z,99981.88
2022-09-16T22:23:48.082Z,99980.41
2022-09-16T22:26:51.700Z,99980.84
2022-09-16T22:29:53.278Z,99977.78
2022-09-16T22:32:54.915Z,99973.84
2022-09-16T22:35:56.538Z,99972.88
2022-09-16T22:39:04.796Z,99966.28
2022-09-16T22:42:07.914Z,99969.25
2022-09-16T22:45:10.141Z,99966.22
2022-09-16T22:48:11.801Z,99962.03
2022-09-16T22:51:15.744Z,99965.59
2022-09-16T22:54:17.511Z,99961.41
2022-09-16T22:57:20.532Z,99960.34
2022-09-16T23:00:22.163Z,99952.75
2022-09-16T23:03:23.904Z,99955.56
2022-09-16T23:06:27.416Z,99960.25
2022-09-16T23:09:29.105Z,99959.84
2022-09-16T23:12:32.403Z,99967.91
2022-09-16T23:15:37.234Z,99966.75
2022-09-16T23:18:38.906Z,99966.78
2022-09-16T23:21:43.743Z,99970.50
2022-09-16T23:24:45.318Z,99970.88
2022-09-16T23:27:48.831Z,99967.16
2022-09-16T23:30:50.522Z,99971.69
2022-09-16T23:33:53.481Z,99972.28
2022-09-16T23:36:55.073Z,99977.53
2022-09-16T23:39:57.009Z,99973.13
2022-09-16T23:43:00.955Z,99975.25
2022-09-16T23:46:03.152Z,99967.88
2022-09-16T23:49:04.937Z,99974.75
2022-09-16T23:52:06.526Z,99973.13
2022-09-16T23:55:08.984Z,99982.63
2022-09-16T23:58:12.078Z,99976.78
